APJ286 ROAH-RJFF
Flight info
| Callsign | APJ286 |
|---|---|
| Flight time | 1h 23m |
| Altitude | 39000 |
| Route | AMAMI Y25 ISKUP |
| Aircraft | A20N/M-SDE2E3FGHIJ1RWXY/LB1 |
Departure
| Time | 2026-04-25 06:49 |
|---|---|
| Airport | Naha International Airport (ROAH) |
Arrival
| Time | 2026-04-25 08:12 |
|---|---|
| Airport | Fukuoka Airport (RJFF) |
| Time | Latitude | Longitude | Altitude | Speed | Heading |
|---|---|---|---|---|---|
| 2026-04-25 06:09 | 26.20713 | 127.64922 | 31 ft | 0 kts | 28° |
| 2026-04-25 06:10 | 26.20845 | 127.64912 | 31 ft | 0 kts | 160° |
| 2026-04-25 06:32 | 26.20853 | 127.64909 | 31 ft | 2 kts | 161° |
| 2026-04-25 06:33 | 26.20867 | 127.64903 | 31 ft | 2 kts | 160° |
| 2026-04-25 06:33 | 26.20881 | 127.64898 | 30 ft | 2 kts | 161° |
| 2026-04-25 06:33 | 26.20894 | 127.64890 | 30 ft | 2 kts | 141° |
| 2026-04-25 06:33 | 26.20905 | 127.64878 | 30 ft | 2 kts | 125° |
| 2026-04-25 06:34 | 26.20912 | 127.64864 | 29 ft | 2 kts | 108° |
| 2026-04-25 06:34 | 26.20915 | 127.64848 | 28 ft | 2 kts | 91° |
| 2026-04-25 06:34 | 26.20914 | 127.64831 | 28 ft | 2 kts | 85° |
| 2026-04-25 06:34 | 26.20913 | 127.64814 | 27 ft | 2 kts | 87° |
| 2026-04-25 06:35 | 26.20912 | 127.64797 | 27 ft | 2 kts | 86° |
| 2026-04-25 06:35 | 26.20912 | 127.64781 | 27 ft | 2 kts | 87° |
| 2026-04-25 06:35 | 26.20912 | 127.64764 | 26 ft | 2 kts | 108° |
| 2026-04-25 06:35 | 26.20919 | 127.64749 | 26 ft | 2 kts | 126° |
| 2026-04-25 06:36 | 26.20929 | 127.64737 | 26 ft | 2 kts | 147° |
| 2026-04-25 06:36 | 26.20943 | 127.64730 | 26 ft | 2 kts | 167° |
| 2026-04-25 06:36 | 26.20951 | 127.64728 | 26 ft | 1 kts | 179° |
| 2026-04-25 06:36 | 26.20956 | 127.64728 | 26 ft | 0 kts | 178° |
| 2026-04-25 06:38 | 26.20954 | 127.64728 | 26 ft | 0 kts | 178° |
| 2026-04-25 06:39 | 26.20945 | 127.64729 | 26 ft | 2 kts | 178° |
| 2026-04-25 06:39 | 26.20925 | 127.64729 | 26 ft | 3 kts | 178° |
| 2026-04-25 06:39 | 26.20896 | 127.64732 | 26 ft | 4 kts | 174° |
| 2026-04-25 06:39 | 26.20878 | 127.64733 | 26 ft | 0 kts | 177° |
| 2026-04-25 06:40 | 26.20875 | 127.64733 | 26 ft | 1 kts | 177° |
| 2026-04-25 06:40 | 26.20863 | 127.64734 | 26 ft | 0 kts | 178° |
| 2026-04-25 06:40 | 26.20860 | 127.64734 | 26 ft | 1 kts | 178° |
| 2026-04-25 06:41 | 26.20848 | 127.64735 | 26 ft | 2 kts | 178° |
| 2026-04-25 06:41 | 26.20826 | 127.64735 | 26 ft | 4 kts | 178° |
| 2026-04-25 06:41 | 26.20759 | 127.64738 | 26 ft | 14 kts | 178° |
| 2026-04-25 06:41 | 26.20650 | 127.64742 | 26 ft | 15 kts | 178° |
| 2026-04-25 06:42 | 26.20552 | 127.64748 | 26 ft | 13 kts | 177° |
| 2026-04-25 06:42 | 26.20453 | 127.64752 | 26 ft | 14 kts | 178° |
| 2026-04-25 06:42 | 26.20342 | 127.64758 | 26 ft | 17 kts | 178° |
| 2026-04-25 06:42 | 26.20205 | 127.64764 | 27 ft | 21 kts | 178° |
| 2026-04-25 06:43 | 26.20048 | 127.64772 | 27 ft | 24 kts | 177° |
| 2026-04-25 06:43 | 26.19883 | 127.64780 | 28 ft | 23 kts | 178° |
| 2026-04-25 06:43 | 26.19741 | 127.64786 | 30 ft | 15 kts | 177° |
| 2026-04-25 06:43 | 26.19626 | 127.64793 | 30 ft | 18 kts | 177° |
| 2026-04-25 06:44 | 26.19488 | 127.64799 | 30 ft | 21 kts | 178° |
| 2026-04-25 06:44 | 26.19329 | 127.64806 | 30 ft | 24 kts | 178° |
| 2026-04-25 06:44 | 26.19154 | 127.64814 | 30 ft | 25 kts | 178° |
| 2026-04-25 06:44 | 26.18977 | 127.64823 | 28 ft | 25 kts | 175° |
| 2026-04-25 06:45 | 26.18803 | 127.64832 | 28 ft | 24 kts | 179° |
| 2026-04-25 06:45 | 26.18638 | 127.64838 | 27 ft | 23 kts | 178° |
| 2026-04-25 06:45 | 26.18535 | 127.64827 | 25 ft | 10 kts | 216° |
| 2026-04-25 06:45 | 26.18510 | 127.64741 | 23 ft | 8 kts | 270° |
| 2026-04-25 06:46 | 26.18510 | 127.64739 | 23 ft | 0 kts | 270° |
| 2026-04-25 06:46 | 26.18510 | 127.64735 | 23 ft | 3 kts | 270° |
| 2026-04-25 06:46 | 26.18511 | 127.64665 | 21 ft | 11 kts | 275° |
| 2026-04-25 06:47 | 26.18551 | 127.64633 | 22 ft | 0 kts | 358° |
| 2026-04-25 06:48 | 26.18661 | 127.64628 | 23 ft | 50 kts | 358° |
| 2026-04-25 06:48 | 26.19272 | 127.64598 | 29 ft | 121 kts | 358° |
| 2026-04-25 06:49 | 26.20300 | 127.64565 | 153 ft | 164 kts | 357° |
| 2026-04-25 06:49 | 26.21445 | 127.64533 | 750 ft | 169 kts | 357° |
| 2026-04-25 06:49 | 26.22631 | 127.64478 | 1414 ft | 174 kts | 356° |
| 2026-04-25 06:49 | 26.23867 | 127.64403 | 1898 ft | 188 kts | 355° |
| 2026-04-25 06:50 | 26.25234 | 127.64264 | 2347 ft | 205 kts | 351° |
| 2026-04-25 06:50 | 26.26692 | 127.63831 | 2750 ft | 228 kts | 334° |
| 2026-04-25 06:50 | 26.28130 | 127.62968 | 3289 ft | 245 kts | 329° |
| 2026-04-25 06:50 | 26.29637 | 127.61981 | 3927 ft | 259 kts | 328° |
| 2026-04-25 06:51 | 26.31213 | 127.60952 | 4830 ft | 263 kts | 328° |
| 2026-04-25 06:51 | 26.32775 | 127.59924 | 5722 ft | 267 kts | 328° |
| 2026-04-25 06:51 | 26.34376 | 127.58887 | 6619 ft | 269 kts | 327° |
| 2026-04-25 06:51 | 26.35996 | 127.57838 | 7474 ft | 273 kts | 327° |
| 2026-04-25 06:52 | 26.37652 | 127.56764 | 8319 ft | 278 kts | 326° |
| 2026-04-25 06:52 | 26.39208 | 127.55521 | 9146 ft | 276 kts | 310° |
| 2026-04-25 06:52 | 26.40255 | 127.53796 | 9985 ft | 272 kts | 290° |
| 2026-04-25 06:52 | 26.40723 | 127.51758 | 10610 ft | 279 kts | 272° |
| 2026-04-25 06:53 | 26.40518 | 127.49566 | 11071 ft | 295 kts | 253° |
| 2026-04-25 06:53 | 26.39545 | 127.47465 | 11454 ft | 315 kts | 234° |
| 2026-04-25 06:53 | 26.38073 | 127.45574 | 11840 ft | 332 kts | 231° |
| 2026-04-25 06:53 | 26.36538 | 127.43613 | 12457 ft | 341 kts | 230° |
| 2026-04-25 06:54 | 26.34737 | 127.41904 | 13238 ft | 347 kts | 213° |
| 2026-04-25 06:54 | 26.32441 | 127.40967 | 13887 ft | 359 kts | 194° |
| 2026-04-25 06:54 | 26.29909 | 127.40833 | 14601 ft | 367 kts | 184° |
| 2026-04-25 06:54 | 26.27338 | 127.40881 | 15275 ft | 370 kts | 185° |
| 2026-04-25 06:55 | 26.24779 | 127.40922 | 15879 ft | 373 kts | 184° |
| 2026-04-25 06:55 | 26.22165 | 127.40955 | 16501 ft | 375 kts | 185° |
| 2026-04-25 06:55 | 26.19561 | 127.40983 | 17079 ft | 378 kts | 185° |
| 2026-04-25 06:55 | 26.16888 | 127.41020 | 17646 ft | 382 kts | 183° |
| 2026-04-25 06:56 | 26.14270 | 127.41596 | 18168 ft | 398 kts | 165° |
| 2026-04-25 06:56 | 26.11839 | 127.43169 | 18696 ft | 415 kts | 146° |
| 2026-04-25 06:56 | 26.09912 | 127.45657 | 19177 ft | 432 kts | 125° |
| 2026-04-25 06:56 | 26.08830 | 127.48820 | 19628 ft | 447 kts | 103° |
| 2026-04-25 06:57 | 26.08800 | 127.52275 | 20124 ft | 455 kts | 82° |
| 2026-04-25 06:57 | 26.09450 | 127.55665 | 20750 ft | 453 kts | 78° |
| 2026-04-25 06:57 | 26.10155 | 127.59083 | 21224 ft | 457 kts | 78° |
| 2026-04-25 06:57 | 26.10850 | 127.62547 | 21650 ft | 462 kts | 79° |
| 2026-04-25 06:58 | 26.11527 | 127.66084 | 22119 ft | 465 kts | 79° |
| 2026-04-25 06:58 | 26.12182 | 127.69585 | 22562 ft | 469 kts | 80° |
| 2026-04-25 06:58 | 26.12838 | 127.73171 | 22959 ft | 474 kts | 80° |
| 2026-04-25 06:58 | 26.13492 | 127.76772 | 23362 ft | 478 kts | 80° |
| 2026-04-25 06:59 | 26.14149 | 127.80396 | 23769 ft | 482 kts | 80° |
| 2026-04-25 06:59 | 26.14810 | 127.84049 | 24155 ft | 486 kts | 80° |
| 2026-04-25 06:59 | 26.15475 | 127.87727 | 24552 ft | 489 kts | 80° |
| 2026-04-25 06:59 | 26.16170 | 127.91440 | 24939 ft | 493 kts | 77° |
| 2026-04-25 07:00 | 26.17445 | 127.94969 | 25240 ft | 498 kts | 57° |
| 2026-04-25 07:00 | 26.19701 | 127.97877 | 25600 ft | 495 kts | 36° |
| 2026-04-25 07:00 | 26.22555 | 127.99980 | 25987 ft | 491 kts | 26° |
| 2026-04-25 07:00 | 26.25515 | 128.01862 | 26288 ft | 495 kts | 24° |
| 2026-04-25 07:01 | 26.28534 | 128.03757 | 26581 ft | 500 kts | 25° |
| 2026-04-25 07:01 | 26.31557 | 128.05699 | 26870 ft | 504 kts | 26° |
| 2026-04-25 07:01 | 26.34587 | 128.07700 | 27195 ft | 507 kts | 27° |
| 2026-04-25 07:01 | 26.37609 | 128.09724 | 27524 ft | 511 kts | 27° |
| 2026-04-25 07:02 | 26.40648 | 128.11780 | 27823 ft | 514 kts | 27° |
| 2026-04-25 07:02 | 26.43724 | 128.13864 | 28111 ft | 517 kts | 27° |
| 2026-04-25 07:02 | 26.46802 | 128.15955 | 28402 ft | 521 kts | 27° |
| 2026-04-25 07:02 | 26.49899 | 128.18060 | 28680 ft | 523 kts | 27° |
| 2026-04-25 07:03 | 26.53052 | 128.20203 | 28961 ft | 526 kts | 27° |
| 2026-04-25 07:03 | 26.56151 | 128.22308 | 29229 ft | 529 kts | 27° |
| 2026-04-25 07:03 | 26.59332 | 128.24472 | 29497 ft | 532 kts | 27° |
| 2026-04-25 07:03 | 26.62470 | 128.26619 | 29759 ft | 536 kts | 28° |
| 2026-04-25 07:04 | 26.65592 | 128.29011 | 30010 ft | 541 kts | 34° |
| 2026-04-25 07:04 | 26.68487 | 128.31641 | 30378 ft | 543 kts | 39° |
| 2026-04-25 07:04 | 26.71230 | 128.34595 | 30771 ft | 544 kts | 45° |
| 2026-04-25 07:04 | 26.73704 | 128.37744 | 31167 ft | 545 kts | 50° |
| 2026-04-25 07:05 | 26.76052 | 128.41051 | 31526 ft | 545 kts | 52° |
| 2026-04-25 07:05 | 26.78371 | 128.44405 | 31880 ft | 545 kts | 52° |
| 2026-04-25 07:05 | 26.80707 | 128.47772 | 32212 ft | 546 kts | 52° |
| 2026-04-25 07:05 | 26.82996 | 128.51038 | 32557 ft | 546 kts | 51° |
| 2026-04-25 07:06 | 26.85359 | 128.54378 | 32915 ft | 546 kts | 51° |
| 2026-04-25 07:06 | 26.87737 | 128.57698 | 33327 ft | 546 kts | 50° |
| 2026-04-25 07:06 | 26.90259 | 128.60877 | 33728 ft | 545 kts | 45° |
| 2026-04-25 07:06 | 26.92978 | 128.63838 | 34128 ft | 543 kts | 39° |
| 2026-04-25 07:07 | 26.95882 | 128.66531 | 34492 ft | 541 kts | 34° |
| 2026-04-25 07:07 | 26.98938 | 128.68941 | 34790 ft | 539 kts | 29° |
| 2026-04-25 07:07 | 27.02157 | 128.71088 | 35087 ft | 536 kts | 25° |
| 2026-04-25 07:07 | 27.05468 | 128.73088 | 35370 ft | 535 kts | 23° |
| 2026-04-25 07:08 | 27.08736 | 128.75020 | 35653 ft | 535 kts | 23° |
| 2026-04-25 07:08 | 27.12065 | 128.76993 | 35941 ft | 535 kts | 23° |
| 2026-04-25 07:08 | 27.15319 | 128.78940 | 36183 ft | 535 kts | 23° |
| 2026-04-25 07:08 | 27.18508 | 128.80862 | 36423 ft | 534 kts | 23° |
| 2026-04-25 07:09 | 27.21809 | 128.82860 | 36652 ft | 534 kts | 23° |
| 2026-04-25 07:09 | 27.25067 | 128.84839 | 36857 ft | 535 kts | 24° |
| 2026-04-25 07:09 | 27.28368 | 128.86845 | 37048 ft | 535 kts | 23° |
| 2026-04-25 07:09 | 27.31617 | 128.88825 | 37214 ft | 535 kts | 23° |
| 2026-04-25 07:10 | 27.34937 | 128.90851 | 37358 ft | 536 kts | 23° |
| 2026-04-25 07:10 | 27.38209 | 128.92847 | 37488 ft | 538 kts | 23° |
| 2026-04-25 07:10 | 27.41469 | 128.94840 | 37632 ft | 539 kts | 23° |
| 2026-04-25 07:10 | 27.44789 | 128.96872 | 37781 ft | 539 kts | 23° |
| 2026-04-25 07:11 | 27.48075 | 128.98881 | 37923 ft | 540 kts | 23° |
| 2026-04-25 07:11 | 27.51412 | 129.00923 | 38053 ft | 541 kts | 22° |
| 2026-04-25 07:11 | 27.54680 | 129.02925 | 38177 ft | 541 kts | 22° |
| 2026-04-25 07:11 | 27.58005 | 129.04959 | 38302 ft | 542 kts | 22° |
| 2026-04-25 07:12 | 27.61313 | 129.06988 | 38407 ft | 543 kts | 22° |
| 2026-04-25 07:12 | 27.67959 | 129.11064 | 38623 ft | 544 kts | 22° |
| 2026-04-25 07:12 | 27.71276 | 129.13106 | 38736 ft | 545 kts | 23° |
| 2026-04-25 07:13 | 27.74637 | 129.15178 | 38851 ft | 545 kts | 22° |
| 2026-04-25 07:13 | 27.77964 | 129.17226 | 38966 ft | 546 kts | 22° |
| 2026-04-25 07:13 | 27.84633 | 129.21336 | 39008 ft | 546 kts | 22° |
| 2026-04-25 07:14 | 27.91333 | 129.25470 | 39009 ft | 547 kts | 22° |
| 2026-04-25 07:14 | 27.97986 | 129.29579 | 39008 ft | 546 kts | 22° |
| 2026-04-25 07:15 | 28.04580 | 129.33659 | 39012 ft | 547 kts | 22° |
| 2026-04-25 07:15 | 28.11243 | 129.37788 | 39006 ft | 547 kts | 23° |
| 2026-04-25 07:16 | 28.17920 | 129.41930 | 39012 ft | 548 kts | 22° |
| 2026-04-25 07:16 | 28.24606 | 129.46091 | 39013 ft | 547 kts | 22° |
| 2026-04-25 07:17 | 28.31273 | 129.50230 | 39008 ft | 549 kts | 22° |
| 2026-04-25 07:17 | 28.37997 | 129.54347 | 39011 ft | 546 kts | 19° |
| 2026-04-25 07:18 | 28.44975 | 129.57605 | 39014 ft | 539 kts | 9° |
| 2026-04-25 07:18 | 28.52088 | 129.59653 | 39011 ft | 530 kts | 0° |
| 2026-04-25 07:19 | 28.59382 | 129.60809 | 39011 ft | 526 kts | 356° |
| 2026-04-25 07:19 | 28.66646 | 129.61838 | 39010 ft | 527 kts | 357° |
| 2026-04-25 07:20 | 28.73901 | 129.62911 | 39010 ft | 528 kts | 357° |
| 2026-04-25 07:20 | 28.81287 | 129.64031 | 39009 ft | 530 kts | 357° |
| 2026-04-25 07:21 | 28.88577 | 129.65146 | 39005 ft | 530 kts | 357° |
| 2026-04-25 07:21 | 28.95922 | 129.66275 | 39011 ft | 531 kts | 357° |
| 2026-04-25 07:22 | 29.03150 | 129.67377 | 39008 ft | 534 kts | 358° |
| 2026-04-25 07:22 | 29.10493 | 129.68507 | 39007 ft | 531 kts | 357° |
| 2026-04-25 07:23 | 29.17826 | 129.69632 | 39007 ft | 533 kts | 357° |
| 2026-04-25 07:23 | 29.25162 | 129.70761 | 39008 ft | 534 kts | 357° |
| 2026-04-25 07:24 | 29.32566 | 129.71905 | 39007 ft | 534 kts | 358° |
| 2026-04-25 07:24 | 29.39945 | 129.73044 | 39009 ft | 537 kts | 357° |
| 2026-04-25 07:25 | 29.47316 | 129.74194 | 39009 ft | 535 kts | 357° |
| 2026-04-25 07:25 | 29.54719 | 129.75334 | 39009 ft | 537 kts | 357° |
| 2026-04-25 07:26 | 29.62167 | 129.76494 | 39012 ft | 539 kts | 357° |
| 2026-04-25 07:26 | 29.69547 | 129.77647 | 39007 ft | 536 kts | 357° |
| 2026-04-25 07:27 | 29.76979 | 129.78799 | 39011 ft | 537 kts | 357° |
| 2026-04-25 07:27 | 29.84359 | 129.79944 | 39011 ft | 539 kts | 357° |
| 2026-04-25 07:28 | 29.91794 | 129.81108 | 39017 ft | 539 kts | 357° |
| 2026-04-25 07:28 | 29.99039 | 129.82245 | 39025 ft | 538 kts | 356° |
| 2026-04-25 07:29 | 30.06353 | 129.83141 | 39030 ft | 533 kts | 354° |
| 2026-04-25 07:29 | 30.13708 | 129.83911 | 39031 ft | 531 kts | 354° |
| 2026-04-25 07:30 | 30.21119 | 129.84685 | 39036 ft | 535 kts | 354° |
| 2026-04-25 07:30 | 30.28510 | 129.85492 | 39037 ft | 533 kts | 353° |
| 2026-04-25 07:31 | 30.35894 | 129.86291 | 39040 ft | 533 kts | 353° |
| 2026-04-25 07:31 | 30.43291 | 129.87096 | 39041 ft | 533 kts | 354° |
| 2026-04-25 07:32 | 30.50679 | 129.87903 | 39039 ft | 533 kts | 353° |
| 2026-04-25 07:32 | 30.58079 | 129.88707 | 39046 ft | 535 kts | 354° |
| 2026-04-25 07:33 | 30.65507 | 129.89516 | 39043 ft | 537 kts | 353° |
| 2026-04-25 07:33 | 30.72927 | 129.90334 | 39043 ft | 533 kts | 354° |
| 2026-04-25 07:34 | 30.80329 | 129.91135 | 39047 ft | 533 kts | 353° |
| 2026-04-25 07:34 | 30.87709 | 129.91943 | 39049 ft | 535 kts | 354° |
| 2026-04-25 07:35 | 30.95138 | 129.92769 | 39050 ft | 532 kts | 353° |
| 2026-04-25 07:35 | 31.02527 | 129.93571 | 39056 ft | 534 kts | 353° |
| 2026-04-25 07:36 | 31.09935 | 129.94389 | 39062 ft | 533 kts | 353° |
| 2026-04-25 07:36 | 31.17325 | 129.95207 | 39065 ft | 532 kts | 353° |
| 2026-04-25 07:37 | 31.24685 | 129.96010 | 39070 ft | 534 kts | 353° |
| 2026-04-25 07:37 | 31.32092 | 129.96788 | 39069 ft | 530 kts | 352° |
| 2026-04-25 07:38 | 31.39437 | 129.97362 | 39069 ft | 531 kts | 351° |
| 2026-04-25 07:38 | 31.46809 | 129.97919 | 39070 ft | 530 kts | 352° |
| 2026-04-25 07:39 | 31.54202 | 129.98488 | 39073 ft | 534 kts | 351° |
| 2026-04-25 07:39 | 31.61596 | 129.99083 | 39066 ft | 532 kts | 352° |
| 2026-04-25 07:40 | 31.69017 | 129.99672 | 39071 ft | 533 kts | 352° |
| 2026-04-25 07:40 | 31.76295 | 130.00253 | 39073 ft | 532 kts | 351° |
| 2026-04-25 07:41 | 31.83678 | 130.00833 | 39076 ft | 533 kts | 352° |
| 2026-04-25 07:41 | 31.91070 | 130.01416 | 39072 ft | 535 kts | 352° |
| 2026-04-25 07:42 | 31.98479 | 130.02011 | 39076 ft | 535 kts | 352° |
| 2026-04-25 07:42 | 32.05874 | 130.02612 | 39069 ft | 532 kts | 352° |
| 2026-04-25 07:43 | 32.13254 | 130.03220 | 39057 ft | 531 kts | 351° |
| 2026-04-25 07:43 | 32.20657 | 130.03815 | 39067 ft | 530 kts | 351° |
| 2026-04-25 07:44 | 32.24285 | 130.04109 | 38962 ft | 526 kts | 351° |
| 2026-04-25 07:44 | 32.27943 | 130.04407 | 38473 ft | 522 kts | 351° |
| 2026-04-25 07:44 | 32.31560 | 130.04695 | 37626 ft | 524 kts | 351° |
| 2026-04-25 07:44 | 32.35201 | 130.04985 | 36670 ft | 528 kts | 351° |
| 2026-04-25 07:45 | 32.38794 | 130.05275 | 35814 ft | 522 kts | 351° |
| 2026-04-25 07:45 | 32.42440 | 130.05572 | 34683 ft | 519 kts | 351° |
| 2026-04-25 07:45 | 32.46025 | 130.05859 | 33297 ft | 519 kts | 351° |
| 2026-04-25 07:45 | 32.49649 | 130.06139 | 31892 ft | 522 kts | 352° |
| 2026-04-25 07:46 | 32.53238 | 130.06424 | 30602 ft | 518 kts | 353° |
| 2026-04-25 07:46 | 32.56785 | 130.06699 | 29580 ft | 507 kts | 352° |
| 2026-04-25 07:46 | 32.60225 | 130.06671 | 28372 ft | 491 kts | 346° |
| 2026-04-25 07:46 | 32.63520 | 130.06242 | 27863 ft | 465 kts | 341° |
| 2026-04-25 07:47 | 32.66675 | 130.05550 | 27418 ft | 455 kts | 338° |
| 2026-04-25 07:47 | 32.69737 | 130.04758 | 26923 ft | 450 kts | 338° |
| 2026-04-25 07:47 | 32.72781 | 130.03935 | 26397 ft | 444 kts | 339° |
| 2026-04-25 07:47 | 32.75782 | 130.03157 | 25888 ft | 440 kts | 339° |
| 2026-04-25 07:48 | 32.78738 | 130.02400 | 25379 ft | 435 kts | 340° |
| 2026-04-25 07:48 | 32.81697 | 130.01645 | 24859 ft | 431 kts | 340° |
| 2026-04-25 07:48 | 32.84581 | 130.00914 | 24344 ft | 426 kts | 341° |
| 2026-04-25 07:48 | 32.87494 | 130.00176 | 23819 ft | 422 kts | 341° |
| 2026-04-25 07:49 | 32.90355 | 129.99446 | 23307 ft | 418 kts | 341° |
| 2026-04-25 07:49 | 32.93180 | 129.98726 | 22794 ft | 413 kts | 342° |
| 2026-04-25 07:49 | 32.95971 | 129.98010 | 22295 ft | 409 kts | 342° |
| 2026-04-25 07:49 | 32.98708 | 129.97311 | 21791 ft | 405 kts | 343° |
| 2026-04-25 07:50 | 33.01448 | 129.96611 | 21290 ft | 401 kts | 343° |
| 2026-04-25 07:50 | 33.04169 | 129.95917 | 20805 ft | 397 kts | 343° |
| 2026-04-25 07:50 | 33.06856 | 129.95227 | 20316 ft | 393 kts | 343° |
| 2026-04-25 07:50 | 33.09502 | 129.94550 | 19828 ft | 388 kts | 343° |
| 2026-04-25 07:51 | 33.12147 | 129.93867 | 19345 ft | 384 kts | 344° |
| 2026-04-25 07:51 | 33.14731 | 129.93204 | 18884 ft | 381 kts | 345° |
| 2026-04-25 07:51 | 33.17292 | 129.92548 | 18406 ft | 377 kts | 345° |
| 2026-04-25 07:51 | 33.19875 | 129.91882 | 17923 ft | 376 kts | 345° |
| 2026-04-25 07:52 | 33.22404 | 129.91232 | 17440 ft | 373 kts | 346° |
| 2026-04-25 07:52 | 33.24950 | 129.90581 | 16944 ft | 371 kts | 346° |
| 2026-04-25 07:52 | 33.27451 | 129.89938 | 16465 ft | 370 kts | 346° |
| 2026-04-25 07:52 | 33.29964 | 129.89290 | 15955 ft | 368 kts | 346° |
| 2026-04-25 07:53 | 33.32465 | 129.88646 | 15467 ft | 367 kts | 346° |
| 2026-04-25 07:53 | 33.34973 | 129.88002 | 14966 ft | 366 kts | 346° |
| 2026-04-25 07:53 | 33.37465 | 129.87355 | 14486 ft | 364 kts | 346° |
| 2026-04-25 07:53 | 33.39922 | 129.86719 | 14018 ft | 363 kts | 347° |
| 2026-04-25 07:54 | 33.42386 | 129.86079 | 13527 ft | 361 kts | 347° |
| 2026-04-25 07:54 | 33.44833 | 129.85449 | 13035 ft | 360 kts | 348° |
| 2026-04-25 07:54 | 33.47300 | 129.85054 | 12546 ft | 359 kts | 359° |
| 2026-04-25 07:54 | 33.49778 | 129.85280 | 12054 ft | 357 kts | 12° |
| 2026-04-25 07:55 | 33.52181 | 129.86012 | 11568 ft | 355 kts | 19° |
| 2026-04-25 07:55 | 33.54544 | 129.86879 | 11092 ft | 353 kts | 19° |
| 2026-04-25 07:55 | 33.56839 | 129.87749 | 10784 ft | 345 kts | 18° |
| 2026-04-25 07:55 | 33.59098 | 129.88583 | 10561 ft | 330 kts | 17° |
| 2026-04-25 07:56 | 33.61238 | 129.89346 | 10397 ft | 307 kts | 18° |
| 2026-04-25 07:56 | 33.63210 | 129.90045 | 10251 ft | 288 kts | 19° |
| 2026-04-25 07:56 | 33.65075 | 129.90710 | 10120 ft | 275 kts | 19° |
| 2026-04-25 07:56 | 33.66895 | 129.91363 | 9965 ft | 266 kts | 19° |
| 2026-04-25 07:57 | 33.68653 | 129.92001 | 9710 ft | 261 kts | 19° |
| 2026-04-25 07:57 | 33.70372 | 129.92622 | 9438 ft | 257 kts | 19° |
| 2026-04-25 07:57 | 33.72087 | 129.93234 | 9138 ft | 255 kts | 20° |
| 2026-04-25 07:57 | 33.73778 | 129.93843 | 8818 ft | 254 kts | 19° |
| 2026-04-25 07:58 | 33.75486 | 129.94459 | 8465 ft | 254 kts | 19° |
| 2026-04-25 07:58 | 33.77179 | 129.95013 | 8177 ft | 252 kts | 15° |
| 2026-04-25 07:58 | 33.78888 | 129.95366 | 8028 ft | 243 kts | 9° |
| 2026-04-25 07:58 | 33.80566 | 129.95537 | 8027 ft | 242 kts | 7° |
| 2026-04-25 07:59 | 33.82259 | 129.95671 | 8020 ft | 243 kts | 7° |
| 2026-04-25 07:59 | 33.83941 | 129.95804 | 8015 ft | 244 kts | 7° |
| 2026-04-25 07:59 | 33.85635 | 129.95940 | 8026 ft | 244 kts | 7° |
| 2026-04-25 07:59 | 33.87334 | 129.96127 | 8043 ft | 242 kts | 15° |
| 2026-04-25 08:00 | 33.88908 | 129.96745 | 8040 ft | 236 kts | 28° |
| 2026-04-25 08:00 | 33.90390 | 129.97609 | 8020 ft | 236 kts | 31° |
| 2026-04-25 08:00 | 33.91863 | 129.98515 | 8026 ft | 237 kts | 30° |
| 2026-04-25 08:00 | 33.93328 | 129.99405 | 8023 ft | 237 kts | 30° |
| 2026-04-25 08:01 | 33.94805 | 130.00297 | 8008 ft | 231 kts | 30° |
| 2026-04-25 08:01 | 33.96143 | 130.01257 | 7878 ft | 216 kts | 47° |
| 2026-04-25 08:01 | 33.96766 | 130.02797 | 7531 ft | 204 kts | 87° |
| 2026-04-25 08:01 | 33.96552 | 130.04419 | 7206 ft | 198 kts | 112° |
| 2026-04-25 08:02 | 33.95797 | 130.05788 | 6902 ft | 195 kts | 127° |
| 2026-04-25 08:02 | 33.94954 | 130.07033 | 6589 ft | 191 kts | 128° |
| 2026-04-25 08:02 | 33.94128 | 130.08270 | 6274 ft | 187 kts | 127° |
| 2026-04-25 08:02 | 33.93325 | 130.09485 | 5967 ft | 183 kts | 126° |
| 2026-04-25 08:03 | 33.92548 | 130.10684 | 5627 ft | 181 kts | 126° |
| 2026-04-25 08:03 | 33.91779 | 130.11887 | 5279 ft | 180 kts | 126° |
| 2026-04-25 08:03 | 33.91021 | 130.13072 | 5010 ft | 185 kts | 126° |
| 2026-04-25 08:03 | 33.90216 | 130.14331 | 4766 ft | 192 kts | 126° |
| 2026-04-25 08:04 | 33.89395 | 130.15624 | 4501 ft | 198 kts | 125° |
| 2026-04-25 08:04 | 33.88547 | 130.16934 | 4228 ft | 198 kts | 124° |
| 2026-04-25 08:04 | 33.87720 | 130.18253 | 3976 ft | 196 kts | 126° |
| 2026-04-25 08:04 | 33.86901 | 130.19544 | 3749 ft | 195 kts | 125° |
| 2026-04-25 08:05 | 33.86064 | 130.20851 | 3478 ft | 194 kts | 126° |
| 2026-04-25 08:05 | 33.85252 | 130.22119 | 3318 ft | 193 kts | 125° |
| 2026-04-25 08:05 | 33.84423 | 130.23418 | 3292 ft | 194 kts | 125° |
| 2026-04-25 08:05 | 33.83609 | 130.24701 | 3259 ft | 195 kts | 125° |
| 2026-04-25 08:06 | 33.82778 | 130.26009 | 3223 ft | 195 kts | 125° |
| 2026-04-25 08:06 | 33.81946 | 130.27318 | 3180 ft | 197 kts | 125° |
| 2026-04-25 08:06 | 33.81095 | 130.28615 | 3123 ft | 198 kts | 127° |
| 2026-04-25 08:06 | 33.80178 | 130.29829 | 3016 ft | 197 kts | 133° |
| 2026-04-25 08:07 | 33.79107 | 130.30875 | 2894 ft | 197 kts | 141° |
| 2026-04-25 08:07 | 33.77963 | 130.31775 | 2741 ft | 197 kts | 144° |
| 2026-04-25 08:07 | 33.76781 | 130.32631 | 2534 ft | 198 kts | 146° |
| 2026-04-25 08:07 | 33.75606 | 130.33449 | 2244 ft | 194 kts | 146° |
| 2026-04-25 08:08 | 33.74458 | 130.34235 | 2083 ft | 181 kts | 146° |
| 2026-04-25 08:08 | 33.73432 | 130.34930 | 2035 ft | 159 kts | 145° |
| 2026-04-25 08:08 | 33.72467 | 130.35588 | 2019 ft | 158 kts | 144° |
| 2026-04-25 08:08 | 33.71512 | 130.36244 | 2026 ft | 158 kts | 145° |
| 2026-04-25 08:09 | 33.70592 | 130.36873 | 2029 ft | 158 kts | 145° |
| 2026-04-25 08:09 | 33.69646 | 130.37518 | 2028 ft | 156 kts | 146° |
| 2026-04-25 08:09 | 33.68693 | 130.38167 | 2011 ft | 156 kts | 146° |
| 2026-04-25 08:09 | 33.67744 | 130.38815 | 1824 ft | 155 kts | 146° |
| 2026-04-25 08:10 | 33.66818 | 130.39449 | 1624 ft | 154 kts | 146° |
| 2026-04-25 08:10 | 33.65887 | 130.40085 | 1416 ft | 149 kts | 147° |
| 2026-04-25 08:10 | 33.65002 | 130.40688 | 1208 ft | 143 kts | 147° |
| 2026-04-25 08:10 | 33.64133 | 130.41281 | 1033 ft | 143 kts | 149° |
| 2026-04-25 08:11 | 33.63271 | 130.41872 | 842 ft | 142 kts | 149° |
| 2026-04-25 08:11 | 33.62422 | 130.42464 | 646 ft | 142 kts | 150° |
| 2026-04-25 08:11 | 33.61556 | 130.43053 | 485 ft | 142 kts | 153° |
| 2026-04-25 08:11 | 33.60689 | 130.43636 | 297 ft | 143 kts | 152° |
| 2026-04-25 08:12 | 33.59819 | 130.44241 | 120 ft | 144 kts | 153° |
| 2026-04-25 08:12 | 33.58978 | 130.44801 | 45 ft | 127 kts | 151° |
| 2026-04-25 08:12 | 33.58358 | 130.45229 | 44 ft | 78 kts | 149° |
| 2026-04-25 08:12 | 33.58116 | 130.45451 | 44 ft | 34 kts | 124° |
| 2026-04-25 08:13 | 33.58087 | 130.45593 | 44 ft | 14 kts | 38° |
| 2026-04-25 08:13 | 33.58172 | 130.45584 | 44 ft | 13 kts | 326° |
| 2026-04-25 08:13 | 33.58257 | 130.45525 | 44 ft | 14 kts | 330° |
| 2026-04-25 08:14 | 33.58440 | 130.45401 | 44 ft | 15 kts | 330° |
| 2026-04-25 08:14 | 33.58537 | 130.45334 | 44 ft | 16 kts | 329° |
| 2026-04-25 08:14 | 33.58637 | 130.45265 | 44 ft | 16 kts | 330° |
| 2026-04-25 08:14 | 33.58740 | 130.45197 | 44 ft | 17 kts | 330° |
| 2026-04-25 08:15 | 33.58845 | 130.45123 | 44 ft | 17 kts | 330° |
| 2026-04-25 08:15 | 33.58953 | 130.45052 | 44 ft | 17 kts | 330° |
| 2026-04-25 08:15 | 33.59062 | 130.44977 | 44 ft | 18 kts | 329° |
| 2026-04-25 08:15 | 33.59170 | 130.44902 | 44 ft | 18 kts | 330° |
| 2026-04-25 08:16 | 33.59271 | 130.44853 | 44 ft | 14 kts | 358° |
| 2026-04-25 08:16 | 33.59373 | 130.44850 | 44 ft | 13 kts | 354° |
| 2026-04-25 08:16 | 33.59427 | 130.44827 | 44 ft | 3 kts | 349° |
| 2026-04-25 08:16 | 33.59450 | 130.44846 | 44 ft | 5 kts | 55° |
| 2026-04-25 08:17 | 33.59469 | 130.44885 | 44 ft | 1 kts | 60° |
| 2026-04-25 08:17 | 33.59471 | 130.44888 | 44 ft | 0 kts | 61° |